sensor_id;sensor_type;location;lat;lon;timestamp;pressure;altitude;pressure_sealevel;temperature;humidity
54453;BME280;40363;52.270;10.546;2022-12-20T00:00:59;77190.22;;;-147.06;85.28
54453;BME280;40363;52.270;10.546;2022-12-20T00:03:25;77179.97;;;-147.06;85.23
54453;BME280;40363;52.270;10.546;2022-12-20T00:05:51;77175.84;;;-147.06;85.26
54453;BME280;40363;52.270;10.546;2022-12-20T00:08:20;77167.63;;;-147.06;85.38
54453;BME280;40363;52.270;10.546;2022-12-20T00:10:46;77177.91;;;-147.06;85.36
54453;BME280;40363;52.270;10.546;2022-12-20T00:13:12;77161.47;;;-147.06;85.35
54453;BME280;40363;52.270;10.546;2022-12-20T00:15:39;77159.41;;;-147.06;85.33
54453;BME280;40363;52.270;10.546;2022-12-20T00:18:05;77165.56;;;-147.06;85.58
54453;BME280;40363;52.270;10.546;2022-12-20T00:20:32;77171.72;;;-147.06;85.88
54453;BME280;40363;52.270;10.546;2022-12-20T00:22:59;77175.84;;;-147.06;86.20
54453;BME280;40363;52.270;10.546;2022-12-20T00:25:27;77173.78;;;-147.06;86.46
54453;BME280;40363;52.270;10.546;2022-12-20T00:27:53;77161.47;;;-147.06;86.55
54453;BME280;40363;52.270;10.546;2022-12-20T00:30:20;77159.41;;;-147.06;86.75
54453;BME280;40363;52.270;10.546;2022-12-20T00:32:46;77157.34;;;-147.06;86.81
54453;BME280;40363;52.270;10.546;2022-12-20T00:35:13;77159.41;;;-147.06;87.06
54453;BME280;40363;52.270;10.546;2022-12-20T00:37:39;77153.22;;;-147.06;87.15
54453;BME280;40363;52.270;10.546;2022-12-20T00:40:06;77165.56;;;-147.06;87.36
54453;BME280;40363;52.270;10.546;2022-12-20T00:42:34;77167.63;;;-147.06;87.62
54453;BME280;40363;52.270;10.546;2022-12-20T00:45:00;77167.63;;;-147.06;87.54
54453;BME280;40363;52.270;10.546;2022-12-20T00:47:26;77153.22;;;-147.06;87.56
54453;BME280;40363;52.270;10.546;2022-12-20T00:49:53;77161.47;;;-147.06;87.80
54453;BME280;40363;52.270;10.546;2022-12-20T00:52:19;77165.56;;;-147.06;87.82
54453;BME280;40363;52.270;10.546;2022-12-20T00:54:45;77173.78;;;-147.06;88.18
54453;BME280;40363;52.270;10.546;2022-12-20T00:57:12;77175.84;;;-147.06;88.08
54453;BME280;40363;52.270;10.546;2022-12-20T00:59:40;77184.06;;;-147.06;88.42
54453;BME280;40363;52.270;10.546;2022-12-20T01:02:06;77175.84;;;-147.06;88.42
54453;BME280;40363;52.270;10.546;2022-12-20T01:04:32;77167.63;;;-147.06;88.27
54453;BME280;40363;52.270;10.546;2022-12-20T01:06:59;77175.84;;;-147.06;88.33
54453;BME280;40363;52.270;10.546;2022-12-20T01:09:25;77167.63;;;-147.06;88.22
54453;BME280;40363;52.270;10.546;2022-12-20T01:11:51;77161.47;;;-147.06;87.81
54453;BME280;40363;52.270;10.546;2022-12-20T01:14:18;77149.13;;;-147.06;87.75
54453;BME280;40363;52.270;10.546;2022-12-20T01:16:46;77149.13;;;-147.06;87.87
54453;BME280;40363;52.270;10.546;2022-12-20T01:19:13;77142.97;;;-147.06;87.80
54453;BME280;40363;52.270;10.546;2022-12-20T01:21:40;77138.84;;;-147.06;87.57
54453;BME280;40363;52.270;10.546;2022-12-20T01:24:08;77132.69;;;-147.06;87.40
54453;BME280;40363;52.270;10.546;2022-12-20T01:26:35;77134.72;;;-147.06;87.26
54453;BME280;40363;52.270;10.546;2022-12-20T01:29:01;77124.44;;;-147.06;87.31
54453;BME280;40363;52.270;10.546;2022-12-20T01:31:28;77110.06;;;-147.06;87.03
54453;BME280;40363;52.270;10.546;2022-12-20T01:33:56;77114.19;;;-147.06;87.27
54453;BME280;40363;52.270;10.546;2022-12-20T01:36:23;77097.72;;;-147.06;87.49
54453;BME280;40363;52.270;10.546;2022-12-20T01:38:54;77087.44;;;-147.06;87.06
54453;BME280;40363;52.270;10.546;2022-12-20T01:41:21;77089.50;;;-147.06;87.03
54453;BME280;40363;52.270;10.546;2022-12-20T01:43:48;77077.19;;;-147.06;86.97
54453;BME280;40363;52.270;10.546;2022-12-20T01:46:18;77064.84;;;-147.06;86.92
54453;BME280;40363;52.270;10.546;2022-12-20T01:48:45;77060.72;;;-147.06;86.88
54453;BME280;40363;52.270;10.546;2022-12-20T01:51:15;77054.56;;;-147.06;86.91
54453;BME280;40363;52.270;10.546;2022-12-20T01:53:42;77058.66;;;-147.06;86.93
54453;BME280;40363;52.270;10.546;2022-12-20T01:56:09;77064.84;;;-147.06;87.25
54453;BME280;40363;52.270;10.546;2022-12-20T01:58:35;77077.19;;;-147.06;87.61
54453;BME280;40363;52.270;10.546;2022-12-20T02:01:04;77068.94;;;-147.06;87.84
54453;BME280;40363;52.270;10.546;2022-12-20T02:03:30;77071.00;;;-147.06;87.85
54453;BME280;40363;52.270;10.546;2022-12-20T02:05:57;77060.72;;;-147.06;87.87
54453;BME280;40363;52.270;10.546;2022-12-20T02:08:40;77052.50;;;-147.06;87.79
54453;BME280;40363;52.270;10.546;2022-12-20T02:11:08;77044.28;;;-147.06;87.79
54453;BME280;40363;52.270;10.546;2022-12-20T02:13:41;77029.88;;;-147.06;87.79
54453;BME280;40363;52.270;10.546;2022-12-20T02:16:11;77029.88;;;-147.06;87.79
54453;BME280;40363;52.270;10.546;2022-12-20T02:18:41;77021.66;;;-147.06;87.58
54453;BME280;40363;52.270;10.546;2022-12-20T02:21:13;77019.63;;;-147.06;87.34
54453;BME280;40363;52.270;10.546;2022-12-20T02:29:28;77025.78;;;-147.06;87.13
54453;BME280;40363;52.270;10.546;2022-12-20T02:32:01;77019.63;;;-147.06;87.19
54453;BME280;40363;52.270;10.546;2022-12-20T02:34:30;77003.16;;;-147.06;86.96
54453;BME280;40363;52.270;10.546;2022-12-20T02:36:58;77007.28;;;-147.06;86.75
54453;BME280;40363;52.270;10.546;2022-12-20T02:39:24;77021.66;;;-147.06;87.08
54453;BME280;40363;52.270;10.546;2022-12-20T02:41:53;77031.94;;;-147.06;87.33
54453;BME280;40363;52.270;10.546;2022-12-20T02:44:22;77027.84;;;-147.06;87.46
54453;BME280;40363;52.270;10.546;2022-12-20T02:47:11;77027.84;;;-147.06;87.38
54453;BME280;40363;52.270;10.546;2022-12-20T02:49:38;77031.94;;;-147.06;87.29
54453;BME280;40363;52.270;10.546;2022-12-20T02:52:06;77023.72;;;-147.06;87.49
54453;BME280;40363;52.270;10.546;2022-12-20T02:54:33;77021.66;;;-147.06;87.57
54453;BME280;40363;52.270;10.546;2022-12-20T02:57:01;77015.50;;;-147.06;87.41
54453;BME280;40363;52.270;10.546;2022-12-20T02:59:29;77011.38;;;-147.06;87.29
54453;BME280;40363;52.270;10.546;2022-12-20T03:01:57;77015.50;;;-147.06;87.34
54453;BME280;40363;52.270;10.546;2022-12-20T03:04:25;77011.38;;;-147.06;87.42
54453;BME280;40363;52.270;10.546;2022-12-20T03:06:58;76990.84;;;-147.06;87.33
54453;BME280;40363;52.270;10.546;2022-12-20T03:09:24;76999.06;;;-147.06;87.43
54453;BME280;40363;52.270;10.546;2022-12-20T03:11:51;76999.06;;;-147.06;87.01
54453;BME280;40363;52.270;10.546;2022-12-20T03:14:18;76980.56;;;-147.06;86.98
54453;BME280;40363;52.270;10.546;2022-12-20T03:16:45;76966.16;;;-147.06;86.72
54453;BME280;40363;52.270;10.546;2022-12-20T03:19:11;76964.13;;;-147.06;86.78
54453;BME280;40363;52.270;10.546;2022-12-20T03:21:39;76968.22;;;-147.06;87.33
54453;BME280;40363;52.270;10.546;2022-12-20T03:24:05;76966.16;;;-147.06;87.69
54453;BME280;40363;52.270;10.546;2022-12-20T03:26:32;76972.34;;;-147.06;87.68
54453;BME280;40363;52.270;10.546;2022-12-20T03:28:58;76986.72;;;-147.06;87.98
54453;BME280;40363;52.270;10.546;2022-12-20T03:31:25;76962.06;;;-147.06;87.78
54453;BME280;40363;52.270;10.546;2022-12-20T03:33:51;76966.16;;;-147.06;87.51
54453;BME280;40363;52.270;10.546;2022-12-20T03:36:17;76970.28;;;-147.06;87.62
54453;BME280;40363;52.270;10.546;2022-12-20T03:38:49;76976.44;;;-147.06;87.87
54453;BME280;40363;52.270;10.546;2022-12-20T03:41:15;76974.38;;;-147.06;88.04
54453;BME280;40363;52.270;10.546;2022-12-20T03:43:42;76970.28;;;-147.06;88.07
54453;BME280;40363;52.270;10.546;2022-12-20T03:46:08;76976.44;;;-147.06;87.97
54453;BME280;40363;52.270;10.546;2022-12-20T03:48:34;76962.06;;;-147.06;87.88
54453;BME280;40363;52.270;10.546;2022-12-20T03:51:01;76943.56;;;-147.06;87.45
54453;BME280;40363;52.270;10.546;2022-12-20T03:53:27;76939.44;;;-147.06;87.46
54453;BME280;40363;52.270;10.546;2022-12-20T03:55:55;76939.44;;;-147.06;87.28
54453;BME280;40363;52.270;10.546;2022-12-20T03:58:21;76927.13;;;-147.06;87.31
54453;BME280;40363;52.270;10.546;2022-12-20T04:00:48;76920.94;;;-147.06;87.22
54453;BME280;40363;52.270;10.546;2022-12-20T04:03:14;76935.34;;;-147.06;87.11
54453;BME280;40363;52.270;10.546;2022-12-20T04:05:40;76929.16;;;-147.06;87.17
54453;BME280;40363;52.270;10.546;2022-12-20T04:08:07;76933.28;;;-147.06;87.19
54453;BME280;40363;52.270;10.546;2022-12-20T04:10:33;76929.16;;;-147.06;86.99
54453;BME280;40363;52.270;10.546;2022-12-20T04:13:21;76929.16;;;-147.06;87.07
54453;BME280;40363;52.270;10.546;2022-12-20T04:15:48;76918.88;;;-147.06;87.10
54453;BME280;40363;52.270;10.546;2022-12-20T04:18:14;76918.88;;;-147.06;86.90
54453;BME280;40363;52.270;10.546;2022-12-20T04:20:40;76920.94;;;-147.06;86.80
54453;BME280;40363;52.270;10.546;2022-12-20T04:23:07;76920.94;;;-147.06;86.68
54453;BME280;40363;52.270;10.546;2022-12-20T04:25:33;76912.72;;;-147.06;86.58
54453;BME280;40363;52.270;10.546;2022-12-20T04:27:59;76916.84;;;-147.06;86.27
54453;BME280;40363;52.270;10.546;2022-12-20T04:30:27;76892.16;;;-147.06;85.66
54453;BME280;40363;52.270;10.546;2022-12-20T04:32:54;76879.84;;;-147.06;85.12
54453;BME280;40363;52.270;10.546;2022-12-20T04:35:20;76877.78;;;-147.06;84.67
54453;BME280;40363;52.270;10.546;2022-12-20T04:37:46;76877.78;;;-147.06;84.71
54453;BME280;40363;52.270;10.546;2022-12-20T04:40:13;76863.38;;;-147.06;84.14
54453;BME280;40363;52.270;10.546;2022-12-20T04:42:39;76877.78;;;-147.06;84.19
54453;BME280;40363;52.270;10.546;2022-12-20T04:45:06;76869.56;;;-147.06;84.06
54453;BME280;40363;52.270;10.546;2022-12-20T04:47:34;76875.72;;;-147.06;84.04
54453;BME280;40363;52.270;10.546;2022-12-20T04:50:00;76873.66;;;-147.06;84.27
54453;BME280;40363;52.270;10.546;2022-12-20T04:52:27;76867.50;;;-147.06;84.31
54453;BME280;40363;52.270;10.546;2022-12-20T04:55:10;76863.38;;;-147.06;84.22
54453;BME280;40363;52.270;10.546;2022-12-20T04:57:37;76867.50;;;-147.06;84.20
54453;BME280;40363;52.270;10.546;2022-12-20T05:00:03;76863.38;;;-147.06;84.14
54453;BME280;40363;52.270;10.546;2022-12-20T05:02:30;76855.16;;;-147.06;84.14
54453;BME280;40363;52.270;10.546;2022-12-20T05:04:57;76857.22;;;-147.06;84.07
54453;BME280;40363;52.270;10.546;2022-12-20T05:07:24;76867.50;;;-147.06;83.79
54453;BME280;40363;52.270;10.546;2022-12-20T05:09:50;76853.13;;;-147.06;83.84
54453;BME280;40363;52.270;10.546;2022-12-20T05:12:17;76861.34;;;-147.06;84.14
54453;BME280;40363;52.270;10.546;2022-12-20T05:14:43;76855.16;;;-147.06;83.78
54453;BME280;40363;52.270;10.546;2022-12-20T05:17:09;76842.84;;;-147.06;83.72
54453;BME280;40363;52.270;10.546;2022-12-20T05:19:36;76851.06;;;-147.06;83.74
54453;BME280;40363;52.270;10.546;2022-12-20T05:22:04;76853.13;;;-147.06;83.85
54453;BME280;40363;52.270;10.546;2022-12-20T05:24:47;76846.94;;;-147.06;83.94
54453;BME280;40363;52.270;10.546;2022-12-20T05:27:31;76846.94;;;-147.06;83.97
54453;BME280;40363;52.270;10.546;2022-12-20T05:29:58;76834.63;;;-147.06;83.77
54453;BME280;40363;52.270;10.546;2022-12-20T05:32:24;76840.78;;;-147.06;84.06
54453;BME280;40363;52.270;10.546;2022-12-20T05:34:50;76834.63;;;-147.06;83.89
54453;BME280;40363;52.270;10.546;2022-12-20T05:37:18;76830.50;;;-147.06;83.85
54453;BME280;40363;52.270;10.546;2022-12-20T05:39:44;76842.84;;;-147.06;83.89
54453;BME280;40363;52.270;10.546;2022-12-20T05:42:11;76844.88;;;-147.06;83.85
54453;BME280;40363;52.270;10.546;2022-12-20T05:44:37;76834.63;;;-147.06;84.06
54453;BME280;40363;52.270;10.546;2022-12-20T05:47:03;76838.72;;;-147.06;84.10
54453;BME280;40363;52.270;10.546;2022-12-20T05:49:30;76842.84;;;-147.06;84.18
54453;BME280;40363;52.270;10.546;2022-12-20T05:51:56;76834.63;;;-147.06;84.64
54453;BME280;40363;52.270;10.546;2022-12-20T05:54:24;76830.50;;;-147.06;84.63
54453;BME280;40363;52.270;10.546;2022-12-20T05:56:50;76844.88;;;-147.06;85.28
54453;BME280;40363;52.270;10.546;2022-12-20T05:59:17;76849.00;;;-147.06;85.92
54453;BME280;40363;52.270;10.546;2022-12-20T06:01:53;76851.06;;;-147.06;86.45
54453;BME280;40363;52.270;10.546;2022-12-20T06:04:39;76844.88;;;-147.06;86.75
54453;BME280;40363;52.270;10.546;2022-12-20T06:07:06;76851.06;;;-147.06;86.88
54453;BME280;40363;52.270;10.546;2022-12-20T06:09:33;76859.28;;;-147.06;87.11
54453;BME280;40363;52.270;10.546;2022-12-20T06:12:00;76867.50;;;-147.06;87.29
54453;BME280;40363;52.270;10.546;2022-12-20T06:14:26;76859.28;;;-147.06;87.00
54453;BME280;40363;52.270;10.546;2022-12-20T06:16:53;76871.63;;;-147.06;87.16
54453;BME280;40363;52.270;10.546;2022-12-20T06:19:19;76871.63;;;-147.06;87.46
54453;BME280;40363;52.270;10.546;2022-12-20T06:21:46;76871.63;;;-147.06;87.22
54453;BME280;40363;52.270;10.546;2022-12-20T06:24:12;76869.56;;;-147.06;87.21
54453;BME280;40363;52.270;10.546;2022-12-20T06:26:40;76871.63;;;-147.06;87.15
54453;BME280;40363;52.270;10.546;2022-12-20T06:29:06;76873.66;;;-147.06;87.38
54453;BME280;40363;52.270;10.546;2022-12-20T06:31:34;76877.78;;;-147.06;87.09
54453;BME280;40363;52.270;10.546;2022-12-20T06:34:00;76888.06;;;-147.06;87.30
54453;BME280;40363;52.270;10.546;2022-12-20T06:36:27;76881.88;;;-147.06;87.14
54453;BME280;40363;52.270;10.546;2022-12-20T06:38:53;76875.72;;;-147.06;86.88
54453;BME280;40363;52.270;10.546;2022-12-20T06:41:19;76883.94;;;-147.06;87.10
54453;BME280;40363;52.270;10.546;2022-12-20T06:43:47;76890.13;;;-147.06;87.42
54453;BME280;40363;52.270;10.546;2022-12-20T06:46:13;76892.16;;;-147.06;87.66
54453;BME280;40363;52.270;10.546;2022-12-20T06:48:40;76883.94;;;-147.06;87.50
54453;BME280;40363;52.270;10.546;2022-12-20T06:51:06;76888.06;;;-147.06;87.60
54453;BME280;40363;52.270;10.546;2022-12-20T06:53:33;76875.72;;;-147.06;87.44
54453;BME280;40363;52.270;10.546;2022-12-20T06:55:59;76879.84;;;-147.06;87.42
54453;BME280;40363;52.270;10.546;2022-12-20T06:58:25;76879.84;;;-147.06;87.33
54453;BME280;40363;52.270;10.546;2022-12-20T07:00:54;76877.78;;;-147.06;87.61
54453;BME280;40363;52.270;10.546;2022-12-20T07:03:20;76883.94;;;-147.06;87.74
54453;BME280;40363;52.270;10.546;2022-12-20T07:05:49;76892.16;;;-147.06;88.18
54453;BME280;40363;52.270;10.546;2022-12-20T07:08:16;76902.44;;;-147.06;88.36
54453;BME280;40363;52.270;10.546;2022-12-20T07:10:43;76904.50;;;-147.06;88.51
54453;BME280;40363;52.270;10.546;2022-12-20T07:13:09;76904.50;;;-147.06;88.81
54453;BME280;40363;52.270;10.546;2022-12-20T07:15:36;76904.50;;;-147.06;88.87
54453;BME280;40363;52.270;10.546;2022-12-20T07:18:04;76908.63;;;-147.06;89.01
54453;BME280;40363;52.270;10.546;2022-12-20T07:20:31;76900.38;;;-147.06;89.03
54453;BME280;40363;52.270;10.546;2022-12-20T07:22:57;76904.50;;;-147.06;89.08
54453;BME280;40363;52.270;10.546;2022-12-20T07:25:24;76896.28;;;-147.06;88.99
54453;BME280;40363;52.270;10.546;2022-12-20T07:27:50;76906.56;;;-147.06;89.31
54453;BME280;40363;52.270;10.546;2022-12-20T07:30:17;76908.63;;;-147.06;89.55
54453;BME280;40363;52.270;10.546;2022-12-20T07:32:44;76910.66;;;-147.06;89.49
54453;BME280;40363;52.270;10.546;2022-12-20T07:35:12;76902.44;;;-147.06;89.43
54453;BME280;40363;52.270;10.546;2022-12-20T07:37:38;76896.28;;;-147.06;89.33
54453;BME280;40363;52.270;10.546;2022-12-20T07:40:05;76898.34;;;-147.06;89.21
54453;BME280;40363;52.270;10.546;2022-12-20T07:42:32;76900.38;;;-147.06;89.32
54453;BME280;40363;52.270;10.546;2022-12-20T07:44:58;76908.63;;;-147.06;89.29
54453;BME280;40363;52.270;10.546;2022-12-20T07:47:25;76896.28;;;-147.06;89.05
54453;BME280;40363;52.270;10.546;2022-12-20T07:49:51;76896.28;;;-147.06;89.12
54453;BME280;40363;52.270;10.546;2022-12-20T07:52:20;76883.94;;;-147.06;88.78
54453;BME280;40363;52.270;10.546;2022-12-20T07:54:48;76890.13;;;-147.06;88.75
54453;BME280;40363;52.270;10.546;2022-12-20T07:57:16;76877.78;;;-147.06;88.11
54453;BME280;40363;52.270;10.546;2022-12-20T07:59:46;76871.63;;;-147.06;87.83
54453;BME280;40363;52.270;10.546;2022-12-20T08:02:15;76865.44;;;-147.06;87.71
54453;BME280;40363;52.270;10.546;2022-12-20T08:04:42;76855.16;;;-147.06;87.42
54453;BME280;40363;52.270;10.546;2022-12-20T08:07:09;76859.28;;;-147.06;87.41
54453;BME280;40363;52.270;10.546;2022-12-20T08:09:39;76855.16;;;-147.06;87.61
54453;BME280;40363;52.270;10.546;2022-12-20T08:12:06;76867.50;;;-147.06;87.94
54453;BME280;40363;52.270;10.546;2022-12-20T08:14:33;76888.06;;;-147.06;89.03
54453;BME280;40363;52.270;10.546;2022-12-20T08:17:00;76883.94;;;-147.06;89.78
54453;BME280;40363;52.270;10.546;2022-12-20T08:19:26;76879.84;;;-147.06;90.37
54453;BME280;40363;52.270;10.546;2022-12-20T08:21:53;76867.50;;;-147.06;90.36
54453;BME280;40363;52.270;10.546;2022-12-20T08:24:19;76869.56;;;-147.06;90.69
54453;BME280;40363;52.270;10.546;2022-12-20T08:26:48;76861.34;;;-147.06;90.80
54453;BME280;40363;52.270;10.546;2022-12-20T08:29:14;76849.00;;;-147.06;90.64
54453;BME280;40363;52.270;10.546;2022-12-20T08:31:41;76859.28;;;-147.06;90.95
54453;BME280;40363;52.270;10.546;2022-12-20T08:34:08;76851.06;;;-147.06;90.95
54453;BME280;40363;52.270;10.546;2022-12-20T08:36:34;76851.06;;;-147.06;90.73
54453;BME280;40363;52.270;10.546;2022-12-20T08:39:01;76842.84;;;-147.06;90.20
54453;BME280;40363;52.270;10.546;2022-12-20T08:41:27;76836.66;;;-147.06;89.94
54453;BME280;40363;52.270;10.546;2022-12-20T08:43:55;76840.78;;;-147.06;89.91
54453;BME280;40363;52.270;10.546;2022-12-20T08:46:21;76846.94;;;-147.06;90.09
54453;BME280;40363;52.270;10.546;2022-12-20T08:48:47;76840.78;;;-147.06;90.02
54453;BME280;40363;52.270;10.546;2022-12-20T08:51:14;76842.84;;;-147.06;89.71
54453;BME280;40363;52.270;10.546;2022-12-20T08:53:40;76842.84;;;-147.06;89.58
54453;BME280;40363;52.270;10.546;2022-12-20T08:56:08;76834.63;;;-147.06;89.27
54453;BME280;40363;52.270;10.546;2022-12-20T08:58:35;76834.63;;;-147.06;88.68
54453;BME280;40363;52.270;10.546;2022-12-20T09:01:03;76818.16;;;-147.06;88.10
54453;BME280;40363;52.270;10.546;2022-12-20T09:03:31;76818.16;;;-147.06;87.46
54453;BME280;40363;52.270;10.546;2022-12-20T09:05:57;76797.63;;;-147.06;86.66
54453;BME280;40363;52.270;10.546;2022-12-20T09:08:24;76789.38;;;-147.06;86.25
54453;BME280;40363;52.270;10.546;2022-12-20T09:10:50;76787.34;;;-147.06;85.87
54453;BME280;40363;52.270;10.546;2022-12-20T09:13:17;76772.94;;;-147.06;85.43
54453;BME280;40363;52.270;10.546;2022-12-20T09:15:43;76762.66;;;-147.06;84.79
54453;BME280;40363;52.270;10.546;2022-12-20T09:18:11;76744.16;;;-147.06;84.41
54453;BME280;40363;52.270;10.546;2022-12-20T09:20:40;76738.00;;;-147.06;83.89
54453;BME280;40363;52.270;10.546;2022-12-20T09:23:07;76729.78;;;-147.06;83.66
54453;BME280;40363;52.270;10.546;2022-12-20T09:25:33;76719.50;;;-147.06;83.55
54453;BME280;40363;52.270;10.546;2022-12-20T09:28:01;76727.72;;;-147.06;83.36
54453;BME280;40363;52.270;10.546;2022-12-20T09:30:27;76715.38;;;-147.06;82.85
54453;BME280;40363;52.270;10.546;2022-12-20T09:32:54;76723.63;;;-147.06;82.91
54453;BME280;40363;52.270;10.546;2022-12-20T09:35:22;76729.78;;;-147.06;82.98
54453;BME280;40363;52.270;10.546;2022-12-20T09:37:48;76729.78;;;-147.06;83.00
54453;BME280;40363;52.270;10.546;2022-12-20T09:40:16;76727.72;;;-147.06;82.85
54453;BME280;40363;52.270;10.546;2022-12-20T09:42:44;76711.28;;;-147.06;82.36
54453;BME280;40363;52.270;10.546;2022-12-20T09:45:11;76698.94;;;-147.06;81.95
54453;BME280;40363;52.270;10.546;2022-12-20T09:47:41;76703.06;;;-147.06;81.69
54453;BME280;40363;52.270;10.546;2022-12-20T09:50:12;76682.50;;;-147.06;80.88
54453;BME280;40363;52.270;10.546;2022-12-20T09:52:45;76676.34;;;-147.06;80.86
54453;BME280;40363;52.270;10.546;2022-12-20T09:55:15;76666.06;;;-147.06;80.48
54453;BME280;40363;52.270;10.546;2022-12-20T09:57:46;76651.66;;;-147.06;80.50
54453;BME280;40363;52.270;10.546;2022-12-20T10:00:17;76643.44;;;-147.06;80.33
54453;BME280;40363;52.270;10.546;2022-12-20T10:02:44;76643.44;;;-147.06;79.82
54453;BME280;40363;52.270;10.546;2022-12-20T10:05:12;76647.56;;;-147.06;79.86
54453;BME280;40363;52.270;10.546;2022-12-20T10:07:40;76649.63;;;-147.06;79.82
54453;BME280;40363;52.270;10.546;2022-12-20T10:12:58;76641.41;;;-147.06;79.48
54453;BME280;40363;52.270;10.546;2022-12-20T10:15:28;76633.16;;;-147.06;79.56
54453;BME280;40363;52.270;10.546;2022-12-20T10:20:44;76608.50;;;-147.06;79.17
54453;BME280;40363;52.270;10.546;2022-12-20T10:23:13;76612.63;;;-147.06;79.03
54453;BME280;40363;52.270;10.546;2022-12-20T10:25:47;76606.44;;;-147.06;78.88
54453;BME280;40363;52.270;10.546;2022-12-20T10:28:16;76596.19;;;-147.06;78.80
54453;BME280;40363;52.270;10.546;2022-12-20T10:30:43;76600.28;;;-147.06;79.25
54453;BME280;40363;52.270;10.546;2022-12-20T10:33:15;76585.91;;;-147.06;78.72
54453;BME280;40363;52.270;10.546;2022-12-20T10:35:43;76567.41;;;-147.06;78.42
54453;BME280;40363;52.270;10.546;2022-12-20T10:38:10;76571.50;;;-147.06;78.25
54453;BME280;40363;52.270;10.546;2022-12-20T10:40:38;76559.19;;;-147.06;77.89
54453;BME280;40363;52.270;10.546;2022-12-20T10:43:05;76553.00;;;-147.06;77.90
54453;BME280;40363;52.270;10.546;2022-12-20T10:45:41;76550.97;;;-147.06;77.92
54453;BME280;40363;52.270;10.546;2022-12-20T10:48:21;76548.91;;;-147.06;78.03
54453;BME280;40363;52.270;10.546;2022-12-20T10:50:53;76538.63;;;-147.06;78.15
54453;BME280;40363;52.270;10.546;2022-12-20T10:53:21;76542.72;;;-147.06;78.22
54453;BME280;40363;52.270;10.546;2022-12-20T10:55:48;76536.56;;;-147.06;78.04
54453;BME280;40363;52.270;10.546;2022-12-20T10:58:16;76538.63;;;-147.06;77.95
54453;BME280;40363;52.270;10.546;2022-12-20T11:00:44;76530.41;;;-147.06;77.94
54453;BME280;40363;52.270;10.546;2022-12-20T11:03:15;76520.13;;;-147.06;77.81
54453;BME280;40363;52.270;10.546;2022-12-20T11:05:52;76507.78;;;-147.06;77.83
54453;BME280;40363;52.270;10.546;2022-12-20T11:08:19;76501.63;;;-147.06;77.69
54453;BME280;40363;52.270;10.546;2022-12-20T11:10:46;76495.47;;;-147.06;77.42
54453;BME280;40363;52.270;10.546;2022-12-20T11:13:19;76493.41;;;-147.06;77.30
54453;BME280;40363;52.270;10.546;2022-12-20T11:15:48;76483.13;;;-147.06;77.14
54453;BME280;40363;52.270;10.546;2022-12-20T11:18:17;76481.06;;;-147.06;77.02
54453;BME280;40363;52.270;10.546;2022-12-20T11:20:49;76479.00;;;-147.06;76.81
54453;BME280;40363;52.270;10.546;2022-12-20T11:23:20;76481.06;;;-147.06;76.98
54453;BME280;40363;52.270;10.546;2022-12-20T11:25:52;76476.97;;;-147.06;76.69
54453;BME280;40363;52.270;10.546;2022-12-20T11:28:27;76464.63;;;-147.06;76.23
54453;BME280;40363;52.270;10.546;2022-12-20T11:31:00;76464.63;;;-147.06;76.20
54453;BME280;40363;52.270;10.546;2022-12-20T11:33:41;76450.25;;;-147.06;75.68
54453;BME280;40363;52.270;10.546;2022-12-20T11:36:12;76462.56;;;-147.06;76.04
54453;BME280;40363;52.270;10.546;2022-12-20T11:38:42;76458.47;;;-147.06;75.83
54453;BME280;40363;52.270;10.546;2022-12-20T11:41:15;76464.63;;;-147.06;75.78
54453;BME280;40363;52.270;10.546;2022-12-20T11:43:56;76446.13;;;-147.06;75.42
54453;BME280;40363;52.270;10.546;2022-12-20T11:46:29;76442.03;;;-147.06;75.42
54453;BME280;40363;52.270;10.546;2022-12-20T11:49:05;76439.97;;;-147.06;75.19
54453;BME280;40363;52.270;10.546;2022-12-20T11:51:39;76439.97;;;-147.06;75.34
54453;BME280;40363;52.270;10.546;2022-12-20T11:54:08;76448.19;;;-147.06;75.45
54453;BME280;40363;52.270;10.546;2022-12-20T11:56:36;76454.34;;;-147.06;75.28
54453;BME280;40363;52.270;10.546;2022-12-20T11:59:04;76439.97;;;-147.06;75.08
54453;BME280;40363;52.270;10.546;2022-12-20T12:01:35;76435.84;;;-147.06;74.74
54453;BME280;40363;52.270;10.546;2022-12-20T12:04:05;76437.91;;;-147.06;74.84
54453;BME280;40363;52.270;10.546;2022-12-20T12:06:33;76446.13;;;-147.06;74.32
54453;BME280;40363;52.270;10.546;2022-12-20T12:09:05;76444.06;;;-147.06;74.19
54453;BME280;40363;52.270;10.546;2022-12-20T12:11:34;76433.78;;;-147.06;73.45
54453;BME280;40363;52.270;10.546;2022-12-20T12:14:02;76427.63;;;-147.06;73.50
54453;BME280;40363;52.270;10.546;2022-12-20T12:16:31;76419.41;;;-147.06;73.17
54453;BME280;40363;52.270;10.546;2022-12-20T12:19:00;76411.19;;;-147.06;73.00
54453;BME280;40363;52.270;10.546;2022-12-20T12:21:28;76417.34;;;-147.06;73.07
54453;BME280;40363;52.270;10.546;2022-12-20T12:24:00;76411.19;;;-147.06;73.03
54453;BME280;40363;52.270;10.546;2022-12-20T12:26:29;76425.56;;;-147.06;73.13
54453;BME280;40363;52.270;10.546;2022-12-20T12:28:57;76427.63;;;-147.06;72.76
54453;BME280;40363;52.270;10.546;2022-12-20T12:31:27;76411.19;;;-147.06;72.95
54453;BME280;40363;52.270;10.546;2022-12-20T12:33:59;76419.41;;;-147.06;73.01
54453;BME280;40363;52.270;10.546;2022-12-20T12:36:47;76419.41;;;-147.06;73.07
54453;BME280;40363;52.270;10.546;2022-12-20T12:39:25;76423.53;;;-147.06;73.44
54453;BME280;40363;52.270;10.546;2022-12-20T12:42:00;76427.63;;;-147.06;73.34
54453;BME280;40363;52.270;10.546;2022-12-20T12:44:34;76423.53;;;-147.06;73.61
54453;BME280;40363;52.270;10.546;2022-12-20T12:47:04;76423.53;;;-147.06;73.54